createdAt,value
2022-08-19T00:01:53.491Z,101188.75
2022-08-19T00:04:24.355Z,101179.88
2022-08-19T00:06:52.975Z,101170.97
2022-08-19T00:09:22.657Z,101160.41
2022-08-19T00:11:50.960Z,101143.75
2022-08-19T00:14:21.572Z,101125.25
2022-08-19T00:16:52.491Z,101111.91
2022-08-19T00:19:20.510Z,101104.84
2022-08-19T00:21:48.984Z,101093.28
2022-08-19T00:24:17.405Z,101081.16
2022-08-19T00:26:47.396Z,101077.81
2022-08-19T00:29:18.175Z,101055.28
2022-08-19T00:31:46.849Z,101043.03
2022-08-19T00:34:16.875Z,101032.69
2022-08-19T00:36:45.425Z,101014.34
2022-08-19T00:39:14.274Z,100995.97
2022-08-19T00:41:43.509Z,101001.47
2022-08-19T00:44:15.017Z,100997.28
2022-08-19T00:46:55.183Z,101028.38
2022-08-19T00:49:33.738Z,101007.50
2022-08-19T00:52:04.950Z,100999.94
2022-08-19T00:54:34.105Z,100998.28
2022-08-19T00:57:04.003Z,100980.72
2022-08-19T01:00:00.781Z,100965.97
2022-08-19T01:02:20.388Z,100968.13
2022-08-19T01:04:50.528Z,100974.09
2022-08-19T01:07:19.871Z,100977.22
2022-08-19T01:09:48.621Z,100978.53
2022-08-19T01:12:17.492Z,100985.88
2022-08-19T01:14:46.314Z,100996.88
2022-08-19T01:17:16.178Z,100994.59
2022-08-19T01:19:47.996Z,100991.34
2022-08-19T01:22:33.520Z,101003.09
2022-08-19T01:25:02.176Z,101007.63
2022-08-19T01:27:43.132Z,101003.66
2022-08-19T01:30:13.881Z,100982.22
2022-08-19T01:32:42.214Z,100993.22
2022-08-19T01:35:10.965Z,101005.69
2022-08-19T01:37:49.580Z,100974.50
2022-08-19T01:40:18.589Z,100946.59
2022-08-19T01:42:46.988Z,100924.16
2022-08-19T01:45:15.186Z,100914.56
2022-08-19T01:47:43.229Z,100924.25
2022-08-19T01:50:19.791Z,100917.22
2022-08-19T01:53:02.353Z,100943.47
2022-08-19T01:55:35.917Z,100952.19
2022-08-19T01:58:12.397Z,100968.75
2022-08-19T02:00:40.420Z,100971.16
2022-08-19T02:03:09.584Z,100996.53
2022-08-19T02:05:37.747Z,101005.16
2022-08-19T02:08:07.393Z,101020.03
2022-08-19T02:10:35.351Z,101029.50
2022-08-19T02:13:03.423Z,101057.44
2022-08-19T02:15:31.549Z,101069.69
2022-08-19T02:18:00.263Z,101082.88
2022-08-19T02:20:28.260Z,101102.03
2022-08-19T02:22:56.206Z,101123.03
2022-08-19T02:25:25.520Z,101152.03
2022-08-19T02:27:53.459Z,101176.59
2022-08-19T02:30:22.162Z,101211.84
2022-08-19T02:32:50.075Z,101234.59
2022-08-19T02:35:18.069Z,101261.81
2022-08-19T02:38:03.922Z,101289.38
2022-08-19T02:40:35.427Z,101336.84
2022-08-19T02:43:03.537Z,101370.25
2022-08-19T02:45:34.095Z,101403.81
2022-08-19T02:48:02.065Z,101441.66
2022-08-19T02:50:34.216Z,101478.91
2022-08-19T02:53:02.185Z,101537.09
2022-08-19T02:55:30.186Z,101592.75
2022-08-19T02:58:00.815Z,101661.47
2022-08-19T03:00:29.175Z,101721.19
2022-08-19T03:02:57.725Z,101780.03
2022-08-19T03:05:47.016Z,101843.75
2022-08-19T03:08:15.042Z,101946.25
2022-08-19T03:10:46.079Z,102036.19
2022-08-19T03:13:18.832Z,102120.81
2022-08-19T03:15:49.678Z,102209.72
2022-08-19T03:18:18.645Z,102272.97
2022-08-19T03:20:48.180Z,102327.47
2022-08-19T03:23:18.080Z,102377.56
2022-08-19T03:26:03.868Z,102432.91
2022-08-19T03:28:37.736Z,102494.28
2022-08-19T03:31:41.619Z,102552.13
2022-08-19T03:33:57.692Z,102619.66
2022-08-19T03:36:27.177Z,102685.59
2022-08-19T03:39:00.386Z,102753.44
2022-08-19T03:41:34.353Z,102832.78
2022-08-19T03:44:17.708Z,102925.38
2022-08-19T03:46:47.942Z,102996.81
2022-08-19T03:49:16.205Z,103060.38
2022-08-19T03:51:48.202Z,103113.31
2022-08-19T03:54:17.961Z,103158.22
2022-08-19T03:56:48.774Z,103183.81
2022-08-19T03:59:20.737Z,103219.94
2022-08-19T04:01:49.043Z,103246.28
2022-08-19T04:04:17.024Z,103271.72
2022-08-19T04:06:48.221Z,103290.16
2022-08-19T04:09:16.297Z,103302.53
2022-08-19T04:11:47.633Z,103331.63
2022-08-19T04:14:19.354Z,103359.06
2022-08-19T04:16:48.727Z,103389.97
2022-08-19T04:19:18.654Z,103403.31
2022-08-19T04:21:50.066Z,103423.66
2022-08-19T04:24:18.838Z,103431.72
2022-08-19T04:26:47.508Z,103443.44
2022-08-19T04:29:19.093Z,103448.91
2022-08-19T04:31:47.812Z,103444.66
2022-08-19T04:34:18.979Z,103454.47
2022-08-19T04:36:47.601Z,103455.44
2022-08-19T04:39:17.925Z,103459.13
2022-08-19T04:42:03.955Z,103454.03
2022-08-19T04:44:35.188Z,103456.88
2022-08-19T04:47:11.000Z,103476.22
2022-08-19T04:49:39.995Z,103473.78
2022-08-19T04:52:09.430Z,103474.72
2022-08-19T04:54:39.397Z,103483.56
2022-08-19T04:57:10.831Z,103488.97
2022-08-19T04:59:41.111Z,103490.81
2022-08-19T05:02:10.645Z,103497.91
2022-08-19T05:04:40.246Z,103505.84
2022-08-19T05:07:09.212Z,103506.00
2022-08-19T05:09:57.752Z,103507.91
2022-08-19T05:12:29.105Z,103522.09
2022-08-19T05:14:59.460Z,103528.38
2022-08-19T05:17:31.025Z,103543.38
2022-08-19T05:20:19.148Z,103557.50
2022-08-19T05:22:48.656Z,103564.53
2022-08-19T05:25:20.677Z,103562.84
2022-08-19T05:27:49.750Z,103571.72
2022-08-19T05:30:33.539Z,103577.06
2022-08-19T05:33:10.373Z,103585.91
2022-08-19T05:35:38.570Z,103596.47
2022-08-19T05:38:08.213Z,103604.41
2022-08-19T05:40:37.045Z,103600.09
2022-08-19T05:43:05.781Z,103609.78
2022-08-19T05:45:40.101Z,103610.66
2022-08-19T05:48:08.045Z,103611.53
2022-08-19T05:50:37.748Z,103625.53
2022-08-19T05:53:05.801Z,103616.75
2022-08-19T05:55:33.815Z,103618.53
2022-08-19T05:58:02.751Z,103622.00
2022-08-19T06:00:31.619Z,103619.44
2022-08-19T06:03:09.607Z,103629.94
2022-08-19T06:05:48.339Z,103635.19
2022-08-19T06:08:19.649Z,103633.44
2022-08-19T06:10:47.722Z,103642.13
2022-08-19T06:13:15.881Z,103649.97
2022-08-19T06:15:45.330Z,103645.59
2022-08-19T06:18:15.247Z,103638.56
2022-08-19T06:20:55.590Z,103634.13
2022-08-19T06:23:31.807Z,103641.09
2022-08-19T06:25:59.738Z,103643.66
2022-08-19T06:28:27.632Z,103640.09
2022-08-19T06:30:55.594Z,103648.78
2022-08-19T06:33:25.130Z,103654.78
2022-08-19T06:35:53.224Z,103659.13
2022-08-19T06:38:24.520Z,103658.06
2022-08-19T06:40:52.461Z,103661.44
2022-08-19T06:43:20.454Z,103659.56
2022-08-19T06:45:56.424Z,103667.25
2022-08-19T06:48:26.272Z,103663.47
2022-08-19T06:50:54.198Z,103667.56
2022-08-19T06:53:22.158Z,103671.59
2022-08-19T06:56:01.227Z,103686.09
2022-08-19T06:58:29.433Z,103678.72
2022-08-19T07:01:05.637Z,103689.72
2022-08-19T07:03:44.186Z,103678.69
2022-08-19T07:06:39.409Z,103677.38
2022-08-19T07:09:05.189Z,103668.03
2022-08-19T07:11:34.163Z,103672.00
2022-08-19T07:14:02.967Z,103675.16
2022-08-19T07:16:31.874Z,103660.00
2022-08-19T07:19:11.598Z,103665.09
2022-08-19T07:21:44.818Z,103664.03
2022-08-19T07:24:13.292Z,103656.97
2022-08-19T07:26:44.136Z,103656.88
2022-08-19T07:29:12.542Z,103649.75
2022-08-19T07:31:43.623Z,103657.66
2022-08-19T07:34:14.595Z,103655.91
2022-08-19T07:36:45.337Z,103654.94
2022-08-19T07:39:16.225Z,103657.47
2022-08-19T07:41:45.190Z,103655.53
2022-08-19T07:44:14.055Z,103653.53
2022-08-19T07:46:46.487Z,103657.59
2022-08-19T07:49:20.123Z,103658.13
2022-08-19T07:51:49.752Z,103659.56
2022-08-19T07:54:18.274Z,103661.78
2022-08-19T07:56:46.688Z,103657.97
2022-08-19T07:59:15.171Z,103653.19
2022-08-19T08:01:43.119Z,103666.09
2022-08-19T08:04:28.462Z,103668.66
2022-08-19T08:07:15.258Z,103660.78
2022-08-19T08:09:46.514Z,103657.22
2022-08-19T08:12:34.310Z,103659.66
2022-08-19T08:15:08.206Z,103658.56
2022-08-19T08:17:49.690Z,103660.22
2022-08-19T08:20:20.084Z,103663.66
2022-08-19T08:23:07.235Z,103659.06
2022-08-19T08:25:36.387Z,103649.91
2022-08-19T08:28:06.202Z,103640.13
2022-08-19T08:30:36.885Z,103634.63
2022-08-19T08:33:06.412Z,103625.75
2022-08-19T08:35:34.496Z,103624.84
2022-08-19T08:38:05.220Z,103624.78
2022-08-19T08:40:41.124Z,103614.75
2022-08-19T08:43:23.857Z,103611.78
2022-08-19T08:45:57.409Z,103603.47
2022-08-19T08:48:36.386Z,103594.00
2022-08-19T08:51:07.292Z,103592.28
2022-08-19T08:53:41.788Z,103584.22
2022-08-19T08:56:13.471Z,103597.53
2022-08-19T08:58:58.609Z,103587.28
2022-08-19T09:01:30.313Z,103575.97
2022-08-19T09:04:02.675Z,103592.59
2022-08-19T09:06:40.671Z,103582.00
2022-08-19T09:09:17.887Z,103572.31
2022-08-19T09:12:03.070Z,103569.47
2022-08-19T09:14:51.120Z,103562.19
2022-08-19T09:17:22.634Z,103550.50
2022-08-19T09:19:56.310Z,103543.31
2022-08-19T09:22:26.060Z,103535.97
2022-08-19T09:24:57.187Z,103531.25
2022-08-19T09:27:42.218Z,103527.13
2022-08-19T09:30:14.350Z,103525.75
2022-08-19T09:32:43.987Z,103521.13
2022-08-19T09:35:13.591Z,103519.25
2022-08-19T09:37:43.218Z,103513.03
2022-08-19T09:40:14.490Z,103503.50
2022-08-19T09:42:50.042Z,103502.59
2022-08-19T09:45:21.907Z,103492.47
2022-08-19T09:47:50.418Z,103485.25
2022-08-19T09:50:19.100Z,103482.97
2022-08-19T09:52:55.388Z,103473.81
2022-08-19T09:55:31.876Z,103465.06
2022-08-19T09:58:04.604Z,103470.81
2022-08-19T10:00:33.009Z,103449.81
2022-08-19T10:03:01.405Z,103433.88
2022-08-19T10:05:49.124Z,103427.25
2022-08-19T10:08:20.708Z,103420.81
2022-08-19T10:10:51.598Z,103415.00
2022-08-19T10:13:26.440Z,103417.66
2022-08-19T10:15:56.874Z,103418.72
2022-08-19T10:18:26.550Z,103422.16
2022-08-19T10:21:03.726Z,103428.50
2022-08-19T10:23:33.727Z,103422.16
2022-08-19T10:26:07.147Z,103429.97
2022-08-19T10:28:38.935Z,103431.63
2022-08-19T10:31:08.035Z,103423.41
2022-08-19T10:33:53.398Z,103431.41
2022-08-19T10:36:24.721Z,103427.97
2022-08-19T10:38:56.798Z,103420.91
2022-08-19T10:41:30.272Z,103423.59
2022-08-19T10:44:04.336Z,103424.47
2022-08-19T10:46:33.590Z,103420.44
2022-08-19T10:49:07.983Z,103423.03
2022-08-19T10:51:53.389Z,103410.09
2022-08-19T10:54:32.182Z,103416.50
2022-08-19T10:57:02.957Z,103408.34
2022-08-19T10:59:35.930Z,103405.28
2022-08-19T11:02:06.180Z,103400.34
2022-08-19T11:04:35.876Z,103396.47
2022-08-19T11:07:04.757Z,103394.06
2022-08-19T11:09:34.310Z,103402.13
2022-08-19T11:12:04.784Z,103407.06
2022-08-19T11:14:34.276Z,103435.34
2022-08-19T11:17:03.039Z,103459.66
2022-08-19T11:19:31.401Z,103484.09
2022-08-19T11:22:02.905Z,103493.94
2022-08-19T11:24:33.741Z,103503.13
2022-08-19T11:27:08.642Z,103504.69
2022-08-19T11:29:37.244Z,103500.91
2022-08-19T11:32:07.335Z,103501.81
2022-08-19T11:34:36.454Z,103491.41
2022-08-19T11:37:06.777Z,103482.84
2022-08-19T11:39:36.509Z,103478.56
2022-08-19T11:45:14.939Z,103463.94
2022-08-19T11:47:42.990Z,103457.34
2022-08-19T11:50:11.477Z,103443.72
2022-08-19T11:52:39.485Z,103439.22
2022-08-19T11:55:09.046Z,103421.38
2022-08-19T11:57:38.458Z,103414.41
2022-08-19T12:00:08.428Z,103408.03
2022-08-19T12:02:37.775Z,103394.16
2022-08-19T12:05:11.551Z,103379.56
2022-08-19T12:07:40.725Z,103371.41
2022-08-19T12:10:09.525Z,103359.63
2022-08-19T12:12:43.439Z,103344.47
2022-08-19T12:15:13.012Z,103305.91
2022-08-19T12:17:41.208Z,103283.59
2022-08-19T12:20:11.454Z,103246.97
2022-08-19T12:22:40.313Z,103225.41
2022-08-19T12:25:11.676Z,103199.31
2022-08-19T12:27:49.659Z,103144.09
2022-08-19T12:30:20.818Z,102882.31
2022-08-19T12:32:48.796Z,102515.78
2022-08-19T12:35:16.754Z,102177.25
2022-08-19T12:37:46.142Z,101898.56
2022-08-19T12:40:26.511Z,101934.25
2022-08-19T12:42:56.283Z,101929.63
2022-08-19T12:45:24.548Z,101942.81
2022-08-19T12:47:54.977Z,101943.16
2022-08-19T12:50:23.380Z,101941.78
2022-08-19T12:52:51.735Z,101936.81
2022-08-19T12:55:20.251Z,101916.25
2022-08-19T12:57:49.510Z,101912.22
2022-08-19T13:00:23.042Z,101908.63
2022-08-19T13:02:53.036Z,101891.03
2022-08-19T13:05:24.468Z,101894.78
2022-08-19T13:07:56.856Z,101907.69
2022-08-19T13:10:35.938Z,101909.16
2022-08-19T13:13:06.828Z,101919.56
2022-08-19T13:15:37.839Z,101930.44
2022-08-19T13:18:06.250Z,101944.66
2022-08-19T13:20:34.699Z,101949.38
2022-08-19T13:23:04.970Z,101965.78
2022-08-19T13:25:32.987Z,101970.63
2022-08-19T13:28:01.725Z,101985.94
2022-08-19T13:30:47.435Z,101984.63
2022-08-19T13:33:16.821Z,101993.53
2022-08-19T13:35:47.808Z,101992.44
2022-08-19T13:38:17.416Z,101995.75
2022-08-19T13:40:45.732Z,102012.22
2022-08-19T13:43:22.980Z,102000.97
2022-08-19T13:45:53.746Z,102012.63
2022-08-19T13:48:24.582Z,102014.44
2022-08-19T13:50:52.547Z,102018.41
2022-08-19T13:53:20.823Z,102028.84
2022-08-19T13:55:48.768Z,102032.69
2022-08-19T13:58:16.748Z,102023.38
2022-08-19T14:00:46.843Z,102033.66
2022-08-19T14:03:14.950Z,102026.53
2022-08-19T14:05:44.363Z,102024.63
2022-08-19T14:08:15.039Z,102018.19
2022-08-19T14:10:45.207Z,102038.97
2022-08-19T14:13:16.789Z,102023.25
2022-08-19T14:15:44.863Z,102038.16
2022-08-19T14:18:13.052Z,102026.75
2022-08-19T14:20:41.083Z,102042.00
2022-08-19T14:23:10.925Z,102036.66
2022-08-19T14:25:38.895Z,102033.78
2022-08-19T14:28:08.589Z,102038.16
2022-08-19T14:30:38.131Z,102029.81
2022-08-19T14:33:08.028Z,102034.72
2022-08-19T14:35:36.657Z,102045.47
2022-08-19T14:38:05.750Z,102039.34
2022-08-19T14:40:35.757Z,102048.88
2022-08-19T14:43:06.041Z,102057.94
2022-08-19T14:45:37.202Z,102049.63
2022-08-19T14:48:05.657Z,102034.38
2022-08-19T14:50:33.710Z,102028.69
2022-08-19T14:53:07.516Z,102022.66
2022-08-19T14:55:43.525Z,102021.72
2022-08-19T14:58:28.583Z,102032.25
2022-08-19T15:01:00.098Z,102029.81
2022-08-19T15:03:28.331Z,102034.88
2022-08-19T15:05:58.587Z,102042.41
2022-08-19T15:08:27.702Z,102046.22
2022-08-19T15:10:57.731Z,102030.94
2022-08-19T15:13:27.411Z,102046.47
2022-08-19T15:15:55.858Z,102052.38
2022-08-19T15:18:23.884Z,102041.88
2022-08-19T15:20:52.376Z,102037.47
2022-08-19T15:23:21.740Z,102039.47
2022-08-19T15:25:53.027Z,102041.09
2022-08-19T15:28:22.999Z,102038.56
2022-08-19T15:30:51.541Z,102041.41
2022-08-19T15:35:50.931Z,102035.72
2022-08-19T15:38:22.023Z,102035.13
2022-08-19T15:40:51.012Z,102036.78
2022-08-19T15:43:20.810Z,102034.28
2022-08-19T15:45:50.310Z,102036.81
2022-08-19T15:48:18.348Z,102038.63
2022-08-19T15:50:46.267Z,102044.41
2022-08-19T15:53:14.322Z,102029.69
2022-08-19T15:55:45.648Z,102036.66
2022-08-19T15:58:33.174Z,102028.66
2022-08-19T16:01:23.512Z,102022.81
2022-08-19T16:04:11.322Z,102024.88
2022-08-19T16:06:45.334Z,102007.47
2022-08-19T16:09:14.043Z,101999.75
2022-08-19T16:11:45.886Z,101994.22
2022-08-19T16:14:14.853Z,101996.88
2022-08-19T16:16:46.706Z,101987.19
2022-08-19T16:19:16.656Z,101987.59
2022-08-19T16:21:45.751Z,101978.25
2022-08-19T16:24:16.614Z,101966.78
2022-08-19T16:26:45.683Z,101959.41
2022-08-19T16:29:14.690Z,101955.59
2022-08-19T16:31:57.881Z,101959.00
2022-08-19T16:34:32.418Z,101961.94
2022-08-19T16:37:01.785Z,101958.22
2022-08-19T16:39:29.917Z,101861.63
2022-08-19T16:41:59.098Z,101721.88
2022-08-19T16:44:29.553Z,101644.00
2022-08-19T16:47:05.632Z,101697.53
2022-08-19T16:49:53.492Z,101731.78
2022-08-19T16:52:26.913Z,101755.94
2022-08-19T16:54:55.688Z,101783.06
2022-08-19T16:57:24.908Z,101802.13
2022-08-19T16:59:53.433Z,101828.91
2022-08-19T17:02:25.530Z,101846.88
2022-08-19T17:04:59.287Z,101829.38
2022-08-19T17:07:28.402Z,102002.84
2022-08-19T17:09:57.270Z,102086.88
2022-08-19T17:12:30.533Z,102081.41
2022-08-19T17:15:01.348Z,102103.72
2022-08-19T17:17:31.516Z,102109.16
2022-08-19T17:20:00.387Z,102114.59
2022-08-19T17:22:28.814Z,102125.56
2022-08-19T17:24:58.379Z,102139.47
2022-08-19T17:27:32.124Z,102139.31
2022-08-19T17:30:02.397Z,102136.72
2022-08-19T17:32:35.157Z,102141.25
2022-08-19T17:35:04.568Z,102149.47
2022-08-19T17:37:32.603Z,102144.38
2022-08-19T17:40:00.621Z,102130.00
2022-08-19T17:42:28.610Z,102114.22
2022-08-19T17:44:59.523Z,102092.88
2022-08-19T17:47:28.458Z,102074.59
2022-08-19T17:49:58.024Z,102062.00
2022-08-19T17:52:26.349Z,102042.44
2022-08-19T17:54:54.283Z,102024.38
2022-08-19T17:57:22.308Z,102001.31
2022-08-19T17:59:50.458Z,102004.75
2022-08-19T18:02:20.653Z,101985.25
2022-08-19T18:04:50.033Z,101966.59
2022-08-19T18:07:21.512Z,101973.50
2022-08-19T18:09:51.996Z,101919.75
2022-08-19T18:12:24.563Z,101912.41
2022-08-19T18:14:52.583Z,101851.47
2022-08-19T18:17:23.173Z,101700.13
2022-08-19T18:19:51.703Z,101547.72
2022-08-19T18:22:26.981Z,101793.94
2022-08-19T18:24:55.705Z,102270.22
2022-08-19T18:27:23.898Z,102703.91
2022-08-19T18:29:51.876Z,103016.00
2022-08-19T18:32:23.651Z,103225.94
2022-08-19T18:34:53.160Z,103359.97
2022-08-19T18:37:21.794Z,103425.25
2022-08-19T18:40:08.859Z,103457.16
2022-08-19T18:42:54.590Z,103463.25
2022-08-19T18:45:40.674Z,103468.47
2022-08-19T18:48:29.418Z,103469.31
2022-08-19T18:50:59.244Z,103467.84
2022-08-19T18:53:29.891Z,103468.78
2022-08-19T18:55:59.825Z,103461.72
2022-08-19T18:58:32.223Z,103461.56
2022-08-19T19:01:01.435Z,103460.66
2022-08-19T19:03:29.464Z,103446.53
2022-08-19T19:05:57.377Z,103450.03
2022-08-19T19:08:27.144Z,103443.94
2022-08-19T19:10:58.894Z,103437.66
2022-08-19T19:13:29.432Z,103437.66
2022-08-19T19:15:57.376Z,103434.19
2022-08-19T19:18:25.327Z,103440.31
2022-08-19T19:20:53.411Z,103435.97
2022-08-19T19:23:22.463Z,103450.09
2022-08-19T19:25:52.323Z,103460.72
2022-08-19T19:28:25.682Z,103479.34
2022-08-19T19:30:58.763Z,103489.16
2022-08-19T19:33:26.800Z,103507.91
2022-08-19T19:35:54.981Z,103535.25
2022-08-19T19:38:23.021Z,103542.50
2022-08-19T19:40:51.309Z,103554.88
2022-08-19T19:43:19.230Z,103561.16
2022-08-19T19:45:49.358Z,103565.63
2022-08-19T19:48:18.757Z,103557.78
2022-08-19T19:50:53.972Z,103559.63
2022-08-19T19:53:26.029Z,103557.03
2022-08-19T19:55:58.895Z,103555.44
2022-08-19T19:58:28.775Z,103558.13
2022-08-19T20:00:57.838Z,103554.56
2022-08-19T20:03:27.470Z,103549.41
2022-08-19T20:05:59.189Z,103549.50
2022-08-19T20:08:44.831Z,103551.34
2022-08-19T20:11:17.507Z,103554.06
2022-08-19T20:13:45.481Z,103547.81
2022-08-19T20:16:13.445Z,103553.91
2022-08-19T20:18:43.746Z,103548.59
2022-08-19T20:21:12.351Z,103538.03
2022-08-19T20:23:40.318Z,103541.47
2022-08-19T20:26:08.478Z,103536.28
2022-08-19T20:28:46.936Z,103530.88
2022-08-19T20:31:20.075Z,103528.16
2022-08-19T20:33:49.852Z,103521.03
2022-08-19T20:36:18.142Z,103527.19
2022-08-19T20:38:46.209Z,103531.47
2022-08-19T20:41:15.008Z,103526.28
2022-08-19T20:43:42.901Z,103531.47
2022-08-19T20:46:11.028Z,103540.16
2022-08-19T20:48:39.308Z,103543.78
2022-08-19T20:51:10.638Z,103554.34
2022-08-19T20:53:39.787Z,103565.78
2022-08-19T20:56:08.661Z,103570.13
2022-08-19T20:58:38.223Z,103581.63
2022-08-19T21:01:07.582Z,103594.00
2022-08-19T21:03:43.438Z,103607.09
2022-08-19T21:06:14.534Z,103609.81
2022-08-19T21:08:42.538Z,103612.47
2022-08-19T21:11:11.103Z,103616.13
2022-08-19T21:13:39.148Z,103626.84
2022-08-19T21:16:09.579Z,103632.19
2022-08-19T21:18:37.627Z,103637.41
2022-08-19T21:21:05.859Z,103638.31
2022-08-19T21:23:35.153Z,103656.00
2022-08-19T21:26:03.135Z,103667.44
2022-08-19T21:28:35.908Z,103661.28
2022-08-19T21:31:06.255Z,103666.56
2022-08-19T21:33:34.541Z,103668.31
2022-08-19T21:36:02.614Z,103654.25
2022-08-19T21:38:30.686Z,103654.28
2022-08-19T21:41:00.060Z,103652.56
2022-08-19T21:43:33.920Z,103655.25
2022-08-19T21:46:01.932Z,103657.84
2022-08-19T21:48:30.016Z,103649.13
2022-08-19T21:50:57.940Z,103658.88
2022-08-19T21:53:25.910Z,103673.03
2022-08-19T21:56:02.793Z,103673.91
2022-08-19T21:58:31.004Z,103673.91
2022-08-19T22:00:59.416Z,103681.81
2022-08-19T22:03:27.602Z,103686.25
2022-08-19T22:05:55.514Z,103691.59
2022-08-19T22:08:23.503Z,103701.31
2022-08-19T22:10:51.833Z,103711.06
2022-08-19T22:13:21.896Z,103715.47
2022-08-19T22:15:51.963Z,103715.47
2022-08-19T22:18:19.904Z,103734.94
2022-08-19T22:20:48.027Z,103750.84
2022-08-19T22:23:16.150Z,103749.00
2022-08-19T22:25:46.978Z,103751.63
2022-08-19T22:28:18.838Z,103750.69
2022-08-19T22:30:51.079Z,103740.91
2022-08-19T22:33:22.407Z,103731.22
2022-08-19T22:35:52.622Z,103723.38
2022-08-19T22:38:20.596Z,103706.59
2022-08-19T22:40:50.257Z,103703.06
2022-08-19T22:43:21.221Z,103689.75
2022-08-19T22:45:52.545Z,103679.09
2022-08-19T22:48:23.556Z,103668.44
2022-08-19T22:51:05.715Z,103668.34
2022-08-19T22:53:33.730Z,103660.38
2022-08-19T22:56:01.828Z,103655.09
2022-08-19T22:58:30.018Z,103649.00
2022-08-19T23:00:59.392Z,103643.69
2022-08-19T23:03:27.447Z,103629.59
2022-08-19T23:05:56.517Z,103612.84
2022-08-19T23:08:25.222Z,103602.28
2022-08-19T23:10:53.198Z,103602.31
2022-08-19T23:13:21.328Z,103590.84
2022-08-19T23:15:49.319Z,103589.19
2022-08-19T23:18:20.099Z,103591.16
2022-08-19T23:20:48.282Z,103585.13
2022-08-19T23:23:19.834Z,103583.66
2022-08-19T23:25:49.908Z,103591.66
2022-08-19T23:28:35.009Z,103600.63
2022-08-19T23:31:02.995Z,103632.41
2022-08-19T23:33:46.469Z,103684.63
2022-08-19T23:36:20.535Z,103720.16
2022-08-19T23:38:50.583Z,103743.47
2022-08-19T23:41:20.445Z,103768.75
2022-08-19T23:43:50.877Z,103803.41
2022-08-19T23:46:27.960Z,103855.53
2022-08-19T23:48:58.080Z,103908.31
2022-08-19T23:51:26.453Z,103947.88
2022-08-19T23:53:54.464Z,103996.25
2022-08-19T23:56:22.687Z,104026.97
2022-08-19T23:58:50.623Z,104052.44
